Time;durP1;ratioP1;P1;durP2;ratioP2;P2;SDS_P1;SDS_P2;PMS_P1;PMS_P2;Temp;Humidity;BMP_temperature;BMP_pressure;BME280_temperature;BME280_humidity;BME280_pressure;Samples;Min_cycle;Max_cycle;Signal;HPM_P1;HPM_P2
2024/04/11 00:03:37;;;;;;;5.60;2.25;;;7.70;99.90;;;;;;7346020;32;20176;-57
2024/04/11 00:07:38;;;;;;;10.05;2.65;;;7.70;99.90;;;;;;7341207;32;20160;-58
2024/04/11 00:11:39;;;;;;;6.80;2.67;;;7.70;99.90;;;;;;7346696;32;20525;-58
2024/04/11 00:15:40;;;;;;;6.62;2.60;;;7.80;99.90;;;;;;7346168;32;20115;-54
2024/04/11 00:19:41;;;;;;;6.53;2.40;;;7.80;99.90;;;;;;7342433;32;20229;-56
2024/04/11 00:23:42;;;;;;;5.40;2.47;;;7.80;99.90;;;;;;7339613;32;20743;-56
2024/04/11 00:27:43;;;;;;;6.22;2.33;;;7.70;99.90;;;;;;7338393;32;20133;-58
2024/04/11 00:31:44;;;;;;;7.93;2.70;;;7.70;99.90;;;;;;7341998;32;20218;-58
2024/04/11 00:35:52;;;;;;;5.72;2.22;;;7.70;99.90;;;;;;7343754;32;20151;-57
2024/04/11 00:39:53;;;;;;;9.48;2.75;;;7.70;99.90;;;;;;7342054;32;20169;-57
2024/04/11 00:43:53;;;;;;;5.72;2.05;;;7.60;99.90;;;;;;7334329;32;20171;-56
2024/04/11 00:47:55;;;;;;;5.40;2.15;;;7.60;99.90;;;;;;7342197;32;20392;-56
2024/04/11 00:51:58;;;;;;;8.20;2.42;;;7.50;99.90;;;;;;7347028;32;20262;-55
2024/04/11 00:55:59;;;;;;;7.12;2.60;;;7.50;99.90;;;;;;7342450;32;20115;-56
2024/04/11 01:00:00;;;;;;;9.30;2.08;;;7.50;99.90;;;;;;7337671;32;20107;-56
2024/04/11 01:04:03;;;;;;;9.50;2.22;;;7.50;99.90;;;;;;7338013;32;20111;-57
2024/04/11 01:08:07;;;;;;;5.72;2.12;;;7.50;99.90;;;;;;7332594;32;20191;-56
2024/04/11 01:12:08;;;;;;;4.90;1.77;;;7.60;99.90;;;;;;7338005;32;20135;-56
2024/04/11 01:16:08;;;;;;;5.03;1.75;;;7.70;99.90;;;;;;7338607;32;20129;-56
2024/04/11 01:20:11;;;;;;;5.62;1.77;;;7.70;99.90;;;;;;7342936;32;20115;-56
2024/04/11 01:24:15;;;;;;;8.07;2.03;;;7.70;99.90;;;;;;7341025;32;20518;-56
2024/04/11 01:28:16;;;;;;;4.85;2.00;;;7.70;99.90;;;;;;7343351;32;20309;-57
2024/04/11 01:32:17;;;;;;;3.90;1.75;;;7.70;99.90;;;;;;7339662;32;20102;-56
2024/04/11 01:36:18;;;;;;;9.70;2.28;;;7.60;99.90;;;;;;7346504;32;20147;-57
2024/04/11 01:40:19;;;;;;;6.97;1.80;;;7.60;99.90;;;;;;7346832;32;20131;-55
2024/04/11 01:44:21;;;;;;;5.60;1.70;;;7.70;99.90;;;;;;7343738;32;20138;-56
2024/04/11 01:48:22;;;;;;;8.15;2.30;;;7.70;99.90;;;;;;7340043;32;20147;-57
2024/04/11 01:52:22;;;;;;;6.07;1.83;;;7.70;99.90;;;;;;7342092;32;20127;-58
2024/04/11 01:56:27;;;;;;;5.18;1.87;;;7.60;99.90;;;;;;7341889;32;20214;-56
2024/04/11 02:00:29;;;;;;;6.10;2.30;;;7.60;99.90;;;;;;7345797;32;20135;-57
2024/04/11 02:04:30;;;;;;;5.18;1.70;;;7.60;99.90;;;;;;7339910;32;20232;-58
2024/04/11 02:08:31;;;;;;;4.90;1.65;;;7.50;99.90;;;;;;7348538;32;20103;-56
2024/04/11 02:12:32;;;;;;;8.55;2.10;;;7.50;99.90;;;;;;7342620;32;20521;-57
2024/04/11 02:16:36;;;;;;;4.22;1.87;;;7.50;99.90;;;;;;7342062;32;20260;-57
2024/04/11 02:20:38;;;;;;;5.12;1.60;;;7.50;99.90;;;;;;7341641;32;20756;-56
2024/04/11 02:24:38;;;;;;;7.97;1.73;;;7.50;99.90;;;;;;7350380;32;20126;-56
2024/04/11 02:28:39;;;;;;;6.03;1.73;;;7.50;99.90;;;;;;7340035;32;20104;-57
2024/04/11 02:32:41;;;;;;;8.60;1.73;;;7.60;99.90;;;;;;7344522;32;20123;-56
2024/04/11 02:36:43;;;;;;;9.00;1.67;;;7.60;99.90;;;;;;7334809;32;20150;-56
2024/04/11 02:40:46;;;;;;;7.37;2.05;;;7.70;99.90;;;;;;7338239;32;20223;-56
2024/04/11 02:44:50;;;;;;;6.57;1.90;;;7.70;99.90;;;;;;7338158;32;20595;-58
2024/04/11 02:48:53;;;;;;;4.65;1.30;;;7.80;99.90;;;;;;7333608;32;20151;-57
2024/04/11 02:52:54;;;;;;;5.18;1.70;;;7.90;99.90;;;;;;7338678;32;20752;-58
2024/04/11 02:56:55;;;;;;;7.03;1.70;;;8.00;99.90;;;;;;7339729;32;20186;-57
2024/04/11 03:01:00;;;;;;;4.30;1.52;;;8.00;99.90;;;;;;7336074;32;20134;-58
2024/04/11 03:05:01;;;;;;;7.85;1.85;;;8.00;99.90;;;;;;7333139;32;20149;-57
2024/04/11 03:09:03;;;;;;;4.45;1.50;;;8.10;99.90;;;;;;7326340;32;20329;-57
2024/04/11 03:13:04;;;;;;;4.20;1.58;;;8.10;99.90;;;;;;7338902;32;20221;-57
2024/04/11 03:17:05;;;;;;;3.45;1.40;;;8.10;99.90;;;;;;7341281;32;20242;-56
2024/04/11 03:21:06;;;;;;;6.28;1.70;;;8.20;99.90;;;;;;7345974;32;20107;-57
2024/04/11 03:25:08;;;;;;;4.25;1.30;;;8.30;99.90;;;;;;7347882;32;20134;-57
2024/04/11 03:29:09;;;;;;;8.35;1.70;;;8.30;99.90;;;;;;7343566;32;20329;-58
2024/04/11 03:33:10;;;;;;;4.87;1.02;;;8.30;99.90;;;;;;7334627;32;20198;-56
2024/04/11 03:37:11;;;;;;;4.35;1.30;;;8.40;99.90;;;;;;7344004;32;20197;-56
2024/04/11 03:41:14;;;;;;;4.22;1.40;;;8.30;99.90;;;;;;7338246;32;20126;-57
2024/04/11 03:45:22;;;;;;;7.70;1.40;;;8.50;99.90;;;;;;7341242;32;20146;-57
2024/04/11 03:49:24;;;;;;;3.22;1.10;;;8.50;99.90;;;;;;7336412;32;20108;-57
2024/04/11 03:53:26;;;;;;;3.85;1.30;;;8.60;99.90;;;;;;7344130;32;20206;-56
2024/04/11 03:57:28;;;;;;;5.35;1.50;;;8.60;99.90;;;;;;7335700;32;20247;-58
2024/04/11 04:01:30;;;;;;;3.53;1.17;;;8.70;99.90;;;;;;7345721;32;20131;-57
2024/04/11 04:05:31;;;;;;;5.82;1.35;;;8.80;99.90;;;;;;7345965;32;20151;-58
2024/04/11 04:09:32;;;;;;;3.45;1.35;;;8.90;99.90;;;;;;7338549;32;20142;-56
2024/04/11 04:13:34;;;;;;;5.22;1.40;;;9.00;99.90;;;;;;7345947;32;20111;-58
2024/04/11 04:17:34;;;;;;;6.10;1.50;;;8.90;99.90;;;;;;7332820;32;20532;-57
2024/04/11 04:21:35;;;;;;;4.55;1.55;;;9.00;99.90;;;;;;7338517;32;20106;-56
2024/04/11 04:25:39;;;;;;;6.05;1.70;;;9.00;99.90;;;;;;7344572;32;20111;-56
2024/04/11 04:29:40;;;;;;;4.28;1.15;;;9.00;99.90;;;;;;7342183;32;20126;-56
2024/04/11 04:33:42;;;;;;;5.15;1.58;;;9.10;99.90;;;;;;7339939;32;20711;-56
2024/04/11 04:37:43;;;;;;;4.03;1.12;;;9.10;99.90;;;;;;7336230;32;20647;-57
2024/04/11 04:41:44;;;;;;;6.87;1.45;;;9.10;99.90;;;;;;7341784;32;20213;-57
2024/04/11 04:45:46;;;;;;;4.00;1.30;;;9.10;99.90;;;;;;7345425;32;20569;-57
2024/04/11 04:49:47;;;;;;;5.65;1.58;;;9.10;99.90;;;;;;7341343;32;20534;-58
2024/04/11 04:53:59;;;;;;;5.55;1.33;;;9.20;99.90;;;;;;7329787;32;20199;-58
2024/04/11 04:58:00;;;;;;;5.90;1.33;;;9.10;99.90;;;;;;7335204;32;20217;-58
2024/04/11 05:02:03;;;;;;;4.40;1.20;;;9.30;99.90;;;;;;7337702;32;20755;-56
2024/04/11 05:06:12;;;;;;;4.80;1.42;;;9.30;99.90;;;;;;7341799;32;20229;-58
2024/04/11 05:10:13;;;;;;;2.55;1.10;;;9.50;99.90;;;;;;7335104;32;20145;-58
2024/04/11 05:14:13;;;;;;;3.87;1.23;;;9.50;99.90;;;;;;7341686;32;20166;-57
2024/04/11 05:18:16;;;;;;;4.25;1.42;;;9.50;99.90;;;;;;7337489;32;20224;-57
2024/04/11 05:22:17;;;;;;;4.47;1.33;;;9.50;99.90;;;;;;7340465;32;20157;-57
2024/04/11 05:26:25;;;;;;;4.37;1.20;;;9.60;99.90;;;;;;7342461;32;20131;-57
2024/04/11 05:30:27;;;;;;;4.50;1.23;;;9.60;99.90;;;;;;7336158;32;20131;-57
2024/04/11 05:34:29;;;;;;;8.35;1.35;;;9.70;99.90;;;;;;7336023;32;20260;-57
2024/04/11 05:38:30;;;;;;;7.85;1.50;;;9.80;99.90;;;;;;7344700;32;20138;-58
2024/04/11 05:42:31;;;;;;;6.05;1.65;;;9.90;99.90;;;;;;7343487;32;20506;-58
2024/04/11 05:46:34;;;;;;;2.70;1.10;;;9.90;99.90;;;;;;7333983;32;20135;-58
2024/04/11 05:50:38;;;;;;;5.37;1.20;;;10.00;99.90;;;;;;7342458;32;20161;-59
2024/04/11 05:54:39;;;;;;;3.70;1.27;;;10.00;99.90;;;;;;7343446;32;20138;-58
2024/04/11 05:58:40;;;;;;;8.23;1.58;;;10.10;99.90;;;;;;7335572;32;20404;-59
2024/04/11 06:02:41;;;;;;;4.87;1.20;;;10.10;99.90;;;;;;7341460;32;20139;-58
2024/04/11 06:06:42;;;;;;;7.93;1.85;;;10.10;99.90;;;;;;7334172;32;20127;-57
2024/04/11 06:10:43;;;;;;;4.30;1.23;;;10.10;99.90;;;;;;7340386;32;20126;-58
2024/04/11 06:14:43;;;;;;;5.32;1.25;;;10.10;99.90;;;;;;7335828;32;20607;-56
2024/04/11 06:18:44;;;;;;;6.15;1.25;;;10.10;99.90;;;;;;7344539;32;20206;-57
2024/04/11 06:22:51;;;;;;;5.43;1.45;;;10.20;99.90;;;;;;7350755;32;20774;-57
2024/04/11 06:26:52;;;;;;;5.40;1.37;;;10.30;99.90;;;;;;7341439;32;20127;-58
2024/04/11 06:30:54;;;;;;;5.07;1.50;;;10.30;99.90;;;;;;7345639;32;20107;-57
2024/04/11 06:34:55;;;;;;;6.80;1.27;;;10.30;99.90;;;;;;7347730;32;20236;-57
2024/04/11 06:38:55;;;;;;;10.80;1.40;;;10.30;99.90;;;;;;7332474;32;20467;-57
2024/04/11 06:42:59;;;;;;;5.18;1.52;;;10.30;99.90;;;;;;7332195;32;20099;-59
2024/04/11 06:46:59;;;;;;;4.85;1.40;;;10.40;99.90;;;;;;7339354;32;20127;-59
2024/04/11 06:51:01;;;;;;;5.78;2.08;;;10.40;99.90;;;;;;7342779;32;20159;-57
2024/04/11 06:55:05;;;;;;;7.10;1.52;;;10.40;99.90;;;;;;7345843;32;20521;-58
2024/04/11 06:59:10;;;;;;;6.30;1.75;;;10.50;99.90;;;;;;7342610;32;20121;-59
2024/04/11 07:03:16;;;;;;;5.62;1.60;;;10.50;99.90;;;;;;7344193;32;20130;-58
2024/04/11 07:07:17;;;;;;;7.32;1.55;;;10.50;99.90;;;;;;7343525;32;20146;-57
2024/04/11 07:11:32;;;;;;;6.53;1.90;;;10.60;99.90;;;;;;7343866;32;20191;-58
2024/04/11 07:15:41;;;;;;;6.20;1.40;;;10.70;99.90;;;;;;7338475;32;20234;-58
2024/04/11 07:19:42;;;;;;;7.25;1.73;;;10.70;99.90;;;;;;7340341;32;20578;-57
2024/04/11 07:23:53;;;;;;;7.32;1.75;;;10.70;99.90;;;;;;7337902;32;20591;-56
2024/04/11 07:27:55;;;;;;;7.90;1.67;;;10.80;99.90;;;;;;7338442;32;20860;-57
2024/04/11 07:31:56;;;;;;;6.15;1.83;;;10.90;99.90;;;;;;7339664;32;20260;-57
2024/04/11 07:35:57;;;;;;;8.90;1.92;;;10.90;99.90;;;;;;7341187;32;20198;-57
2024/04/11 07:40:00;;;;;;;7.05;2.00;;;11.00;99.90;;;;;;7334629;32;20118;-58
2024/04/11 07:44:05;;;;;;;5.53;1.40;;;11.00;99.90;;;;;;7337808;32;20134;-57
2024/04/11 07:48:12;;;;;;;9.18;2.08;;;11.00;99.90;;;;;;7339982;32;20133;-59
2024/04/11 07:52:13;;;;;;;7.05;1.83;;;11.10;99.90;;;;;;7340824;32;20222;-58
2024/04/11 07:56:19;;;;;;;4.37;1.50;;;11.10;99.90;;;;;;7341707;32;20751;-57
2024/04/11 08:00:20;;;;;;;6.35;1.65;;;11.30;99.90;;;;;;7338404;32;20156;-59
2024/04/11 08:04:21;;;;;;;8.00;1.70;;;11.40;99.90;;;;;;7339676;32;20380;-58
2024/04/11 08:08:22;;;;;;;4.62;1.33;;;11.50;99.90;;;;;;7339715;32;20154;-56
2024/04/11 08:12:24;;;;;;;5.37;1.67;;;11.60;99.90;;;;;;7337315;32;20236;-56
2024/04/11 08:16:26;;;;;;;6.62;1.30;;;11.60;99.90;;;;;;7340469;32;20387;-58
2024/04/11 08:20:27;;;;;;;4.47;1.30;;;11.90;99.90;;;;;;7334878;32;20337;-57
2024/04/11 08:24:29;;;;;;;7.93;1.70;;;12.10;99.90;;;;;;7329540;32;20135;-57
2024/04/11 08:28:31;;;;;;;5.53;1.50;;;12.20;99.90;;;;;;7332154;32;20111;-58
2024/04/11 08:32:33;;;;;;;6.05;1.42;;;12.40;99.90;;;;;;7336281;32;20276;-58
2024/04/11 08:36:33;;;;;;;8.35;1.40;;;12.40;99.90;;;;;;7324174;32;20127;-58
2024/04/11 08:40:39;;;;;;;7.95;1.60;;;12.40;99.90;;;;;;7338744;32;20233;-58
2024/04/11 08:44:41;;;;;;;4.97;1.33;;;12.50;99.90;;;;;;7330900;32;20286;-59
2024/04/11 08:48:42;;;;;;;9.70;1.48;;;12.60;99.90;;;;;;7335543;32;20516;-58
2024/04/11 08:52:46;;;;;;;7.47;1.83;;;12.70;99.90;;;;;;7339155;32;20608;-58
2024/04/11 08:56:47;;;;;;;6.28;1.62;;;12.90;99.90;;;;;;7340262;32;20164;-57
2024/04/11 09:00:50;;;;;;;6.45;1.62;;;13.00;99.90;;;;;;7340552;32;20238;-57
2024/04/11 09:04:51;;;;;;;4.40;1.40;;;13.00;99.90;;;;;;7340298;32;20102;-59
2024/04/11 09:08:52;;;;;;;6.07;1.55;;;13.20;99.90;;;;;;7343067;32;20138;-57
2024/04/11 09:12:53;;;;;;;7.03;1.12;;;13.30;99.90;;;;;;7340329;32;20204;-58
2024/04/11 09:17:04;;;;;;;7.45;1.48;;;13.30;99.90;;;;;;7344770;32;20107;-57
2024/04/11 09:21:06;;;;;;;7.57;1.65;;;13.40;99.90;;;;;;7336521;32;20141;-57
2024/04/11 09:25:07;;;;;;;5.62;1.30;;;13.50;99.90;;;;;;7333657;32;20588;-57
2024/04/11 09:29:11;;;;;;;5.32;1.33;;;13.70;99.90;;;;;;7344107;32;20150;-57
2024/04/11 09:33:16;;;;;;;7.70;1.62;;;13.70;99.90;;;;;;7341418;32;20219;-57
2024/04/11 09:37:23;;;;;;;8.02;1.48;;;13.80;99.90;;;;;;7338192;32;20143;-57
2024/04/11 09:41:26;;;;;;;8.88;1.83;;;13.90;99.90;;;;;;7340913;32;20490;-58
2024/04/11 09:45:28;;;;;;;8.00;1.77;;;13.90;99.90;;;;;;7331628;32;20781;-57
2024/04/11 09:49:34;;;;;;;3.92;1.48;;;13.90;99.90;;;;;;7349722;32;20219;-58
2024/04/11 09:53:36;;;;;;;5.62;1.50;;;13.90;99.90;;;;;;7347492;32;20241;-58
2024/04/11 09:57:41;;;;;;;11.05;2.00;;;13.90;99.90;;;;;;7340332;32;20133;-58
2024/04/11 10:01:42;;;;;;;7.55;1.42;;;13.90;99.90;;;;;;7340842;32;20725;-57
2024/04/11 10:05:50;;;;;;;9.88;1.90;;;13.90;99.90;;;;;;7342933;32;20138;-58
2024/04/11 10:09:57;;;;;;;6.75;1.90;;;13.90;99.90;;;;;;7340586;32;20219;-58
2024/04/11 10:14:02;;;;;;;6.80;1.73;;;13.90;99.90;;;;;;7340406;32;20131;-58
2024/04/11 10:18:10;;;;;;;7.22;1.92;;;13.90;99.90;;;;;;7340479;32;20131;-57
2024/04/11 10:22:15;;;;;;;4.20;1.75;;;14.00;99.90;;;;;;7344250;32;20115;-57
2024/04/11 10:26:19;;;;;;;7.05;1.70;;;14.00;99.90;;;;;;7346881;32;20107;-57
2024/04/11 10:30:23;;;;;;;9.20;2.10;;;14.20;99.90;;;;;;7345154;32;20103;-57
2024/04/11 10:34:48;;;;;;;7.70;1.65;;;14.30;99.90;;;;;;7344809;32;20869;-58
2024/04/11 10:38:52;;;;;;;7.75;1.60;;;14.30;99.90;;;;;;7348271;32;20112;-59
2024/04/11 10:43:11;;;;;;;8.07;1.62;;;14.40;99.90;;;;;;7343073;32;20157;-59
2024/04/11 10:47:13;;;;;;;6.97;1.30;;;14.30;99.90;;;;;;7341921;32;20268;-57
2024/04/11 10:51:15;;;;;;;4.35;1.20;;;14.40;99.90;;;;;;7345735;32;20579;-57
2024/04/11 10:55:26;;;;;;;4.90;1.10;;;14.60;99.90;;;;;;7341862;32;20480;-58
2024/04/11 10:59:32;;;;;;;5.55;1.25;;;14.70;99.90;;;;;;7343148;32;20103;-58
2024/04/11 11:07:43;;;;;;;6.37;1.15;;;14.80;99.90;;;;;;7341994;32;20213;-58
2024/04/11 11:11:45;;;;;;;5.15;1.50;;;14.80;99.90;;;;;;7347513;32;20194;-56
2024/04/11 11:15:46;;;;;;;6.50;1.10;;;14.80;99.90;;;;;;7339890;32;20484;-58
2024/04/11 11:19:51;;;;;;;8.20;1.30;;;14.70;99.90;;;;;;7341185;32;20142;-58
2024/04/11 11:24:00;;;;;;;5.37;1.42;;;14.60;99.90;;;;;;7344448;32;20107;-58
2024/04/11 11:28:01;;;;;;;6.30;1.27;;;14.60;99.90;;;;;;7345344;32;20149;-59
2024/04/11 11:32:02;;;;;;;7.75;2.12;;;14.40;99.90;;;;;;7346225;32;20159;-57
2024/04/11 11:36:04;;;;;;;4.65;1.33;;;14.40;99.90;;;;;;7340462;32;20611;-58
2024/04/11 11:44:40;;;;;;;7.97;1.30;;;14.40;99.90;;;;;;7343600;32;20169;-59
2024/04/11 11:48:45;;;;;;;6.07;1.20;;;14.50;99.90;;;;;;7335525;32;20161;-58
2024/04/11 11:52:50;;;;;;;8.18;1.15;;;14.50;99.90;;;;;;7341520;32;20161;-58
2024/04/11 11:57:09;;;;;;;4.75;1.20;;;14.50;99.90;;;;;;7337255;32;20150;-58
2024/04/11 12:01:28;;;;;;;5.28;1.10;;;14.40;99.90;;;;;;7335003;32;20880;-58
2024/04/11 12:05:33;;;;;;;7.28;1.33;;;14.50;99.90;;;;;;7339856;32;20128;-59
2024/04/11 12:09:43;;;;;;;8.00;1.37;;;14.50;99.90;;;;;;7338971;32;20229;-58
2024/04/11 12:13:51;;;;;;;7.00;1.10;;;14.60;99.90;;;;;;7341891;32;20344;-58
2024/04/11 12:17:52;;;;;;;6.62;1.23;;;14.80;99.90;;;;;;7333914;32;20159;-58
2024/04/11 12:21:54;;;;;;;5.50;1.33;;;14.80;99.90;;;;;;7338188;32;20328;-58
2024/04/11 12:25:57;;;;;;;4.60;1.08;;;14.80;99.90;;;;;;7341476;32;20104;-58
2024/04/11 12:30:01;;;;;;;5.32;1.30;;;14.70;99.90;;;;;;7337700;32;20137;-59
2024/04/11 12:34:04;;;;;;;4.40;1.30;;;14.70;99.90;;;;;;7336983;32;20146;-58
2024/04/11 12:38:07;;;;;;;9.15;1.73;;;14.60;99.90;;;;;;7338873;32;20165;-58
2024/04/11 12:42:11;;;;;;;5.93;1.37;;;14.50;99.90;;;;;;7337487;32;20421;-57
2024/04/11 12:46:11;;;;;;;5.20;1.48;;;14.40;99.90;;;;;;7341651;32;20210;-57
2024/04/11 12:50:12;;;;;;;5.18;1.40;;;14.50;99.90;;;;;;7336447;32;20235;-57
2024/04/11 12:54:17;;;;;;;4.95;1.70;;;14.50;99.90;;;;;;7334083;32;20534;-59
2024/04/11 12:58:24;;;;;;;4.45;1.23;;;14.60;99.90;;;;;;7338110;32;20144;-57
2024/04/11 13:02:25;;;;;;;5.72;1.60;;;14.70;99.90;;;;;;7337818;32;20218;-58
2024/04/11 13:06:48;;;;;;;6.32;1.55;;;14.80;99.90;;;;;;7337163;32;20217;-58
2024/04/11 13:10:49;;;;;;;6.57;1.80;;;15.00;99.90;;;;;;7337303;32;20119;-59
2024/04/11 13:14:57;;;;;;;3.97;1.10;;;15.30;99.90;;;;;;7342369;32;20837;-58
2024/04/11 13:18:58;;;;;;;3.72;1.10;;;15.50;99.90;;;;;;7337198;32;20141;-58
2024/04/11 13:23:09;;;;;;;5.57;1.40;;;15.80;99.90;;;;;;7339189;32;20103;-58
2024/04/11 13:27:14;;;;;;;9.20;1.70;;;15.80;99.90;;;;;;7341658;32;20111;-58
2024/04/11 13:31:19;;;;;;;6.50;1.45;;;16.00;99.90;;;;;;7338949;32;20112;-59
2024/04/11 13:35:36;;;;;;;3.42;1.58;;;16.00;99.90;;;;;;7335632;32;20123;-59
2024/04/11 13:39:56;;;;;;;5.93;1.37;;;16.10;99.90;;;;;;7340094;32;20787;-58
2024/04/11 13:43:57;;;;;;;8.70;1.60;;;16.20;99.90;;;;;;7340562;32;20104;-59
2024/04/11 13:48:00;;;;;;;6.40;1.40;;;16.20;99.90;;;;;;7338485;32;20551;-58
2024/04/11 13:52:18;;;;;;;5.22;1.40;;;16.00;99.90;;;;;;7334590;32;20244;-59
2024/04/11 13:56:22;;;;;;;8.13;1.67;;;15.90;99.90;;;;;;7340104;32;20486;-58
2024/04/11 14:00:23;;;;;;;3.95;1.40;;;15.90;99.90;;;;;;7344937;32;20122;-58
2024/04/11 14:04:46;;;;;;;9.77;1.67;;;15.80;99.90;;;;;;7338190;32;20123;-58
2024/04/11 14:08:44;;;;;;;7.03;1.77;;;15.80;99.90;;;;;;7340851;32;20251;-58
2024/04/11 14:12:45;;;;;;;7.10;1.75;;;15.80;99.90;;;;;;7330898;32;20112;-58
2024/04/11 14:16:53;;;;;;;5.78;1.58;;;15.80;99.90;;;;;;7339415;32;20388;-57
2024/04/11 14:21:17;;;;;;;5.40;1.87;;;15.90;99.90;;;;;;7326879;32;20130;-58
2024/04/11 14:29:20;;;;;;;5.37;1.60;;;15.80;99.90;;;;;;7329822;32;20500;-59
2024/04/11 14:37:47;;;;;;;6.03;1.92;;;15.90;99.90;;;;;;7333324;32;20186;-58
2024/04/11 14:41:50;;;;;;;6.35;1.65;;;16.10;99.90;;;;;;7340902;32;20123;-58
2024/04/11 14:45:51;;;;;;;4.85;1.90;;;16.10;99.90;;;;;;7331530;32;20163;-58
2024/04/11 14:49:55;;;;;;;4.45;1.65;;;16.10;99.90;;;;;;7339878;32;20107;-59
2024/04/11 14:53:56;;;;;;;7.53;2.20;;;16.20;99.90;;;;;;7330174;32;20115;-58
2024/04/11 14:57:58;;;;;;;6.12;2.10;;;16.20;99.90;;;;;;7336796;32;20111;-58
2024/04/11 15:01:59;;;;;;;4.25;2.05;;;16.20;99.90;;;;;;7345358;32;20227;-59
2024/04/11 15:05:59;;;;;;;8.10;2.22;;;16.30;99.90;;;;;;7335973;32;20238;-58
2024/04/11 15:10:16;;;;;;;6.20;1.90;;;16.20;99.90;;;;;;7343146;32;20103;-59
2024/04/11 15:14:18;;;;;;;3.08;1.40;;;16.20;99.90;;;;;;7344312;32;20665;-59
2024/04/11 15:18:19;;;;;;;5.57;1.87;;;16.20;99.90;;;;;;7337304;32;20138;-59
2024/04/11 15:22:25;;;;;;;5.53;1.83;;;16.10;99.90;;;;;;7332208;32;20262;-59
2024/04/11 15:26:27;;;;;;;5.10;1.90;;;16.10;99.90;;;;;;7337866;32;20169;-59
2024/04/11 15:34:52;;;;;;;5.20;2.00;;;16.00;99.90;;;;;;7337274;32;20107;-59
2024/04/11 15:38:53;;;;;;;6.93;2.10;;;15.90;99.90;;;;;;7340963;32;20213;-59
2024/04/11 15:42:55;;;;;;;5.37;2.45;;;16.00;99.90;;;;;;7342842;32;20275;-60
2024/04/11 15:47:03;;;;;;;6.47;2.67;;;15.90;99.90;;;;;;7344951;32;20149;-58
2024/04/11 15:51:05;;;;;;;7.00;2.45;;;15.90;99.90;;;;;;7346444;32;20103;-57
2024/04/11 15:55:09;;;;;;;4.60;2.10;;;16.00;99.90;;;;;;7340032;32;20158;-58
2024/04/11 15:59:10;;;;;;;5.35;1.90;;;16.00;99.90;;;;;;7340738;32;20130;-58
2024/04/11 16:03:14;;;;;;;5.57;1.55;;;16.10;99.90;;;;;;7342145;32;20540;-58
2024/04/11 16:07:25;;;;;;;3.55;1.75;;;16.10;99.90;;;;;;7340361;32;20226;-59
2024/04/11 16:11:27;;;;;;;4.95;1.92;;;16.10;99.90;;;;;;7336878;32;20115;-58
2024/04/11 16:15:30;;;;;;;4.82;1.77;;;16.10;99.90;;;;;;7340874;32;20175;-59
2024/04/11 16:19:32;;;;;;;6.10;1.73;;;16.00;99.90;;;;;;7341691;32;20142;-58
2024/04/11 16:23:34;;;;;;;7.55;1.37;;;16.00;99.90;;;;;;7339960;32;20107;-58
2024/04/11 16:27:35;;;;;;;8.48;1.60;;;15.90;99.90;;;;;;7329621;32;20119;-58
2024/04/11 16:31:39;;;;;;;6.30;1.87;;;15.80;99.90;;;;;;7337660;32;20171;-58
2024/04/11 16:35:39;;;;;;;5.87;1.85;;;15.80;99.90;;;;;;7340178;32;20775;-59
2024/04/11 16:39:49;;;;;;;5.03;1.40;;;15.70;99.90;;;;;;7340523;32;20115;-58
2024/04/11 16:43:51;;;;;;;7.70;1.50;;;15.60;99.90;;;;;;7338904;32;20560;-57
2024/04/11 16:47:58;;;;;;;3.67;1.48;;;15.80;99.90;;;;;;7336740;32;20183;-59
2024/04/11 16:51:59;;;;;;;6.35;1.42;;;15.70;99.90;;;;;;7334709;32;20127;-58
2024/04/11 16:56:04;;;;;;;5.62;1.73;;;15.60;99.90;;;;;;7332989;32;20153;-58
2024/04/11 17:00:26;;;;;;;6.25;1.70;;;15.60;99.90;;;;;;7337270;32;20194;-59
2024/04/11 17:04:31;;;;;;;4.93;1.73;;;15.60;99.90;;;;;;7321837;32;20126;-59
2024/04/11 17:08:41;;;;;;;5.18;1.40;;;15.60;99.90;;;;;;7333187;32;20301;-58
2024/04/11 17:12:48;;;;;;;5.37;1.92;;;15.60;99.90;;;;;;7337184;32;20232;-59
2024/04/11 17:21:18;;;;;;;7.35;2.08;;;15.50;99.90;;;;;;7339957;32;20127;-58
2024/04/11 17:25:26;;;;;;;7.43;1.60;;;15.50;99.90;;;;;;7337956;32;20167;-59
2024/04/11 17:29:46;;;;;;;4.78;1.42;;;15.50;99.90;;;;;;7341221;32;20563;-58
2024/04/11 17:33:52;;;;;;;8.85;2.00;;;15.50;99.90;;;;;;7329334;32;20160;-58
2024/04/11 17:38:01;;;;;;;11.38;1.50;;;15.50;99.90;;;;;;7323159;32;20146;-59
2024/04/11 17:42:14;;;;;;;5.57;1.60;;;15.40;99.90;;;;;;7329845;32;20127;-57
2024/04/11 17:46:14;;;;;;;6.65;1.98;;;15.40;99.90;;;;;;7331638;32;20233;-57
2024/04/11 17:50:15;;;;;;;7.15;1.50;;;15.40;99.90;;;;;;7324276;32;20196;-57
2024/04/11 17:54:18;;;;;;;6.87;1.58;;;15.40;99.90;;;;;;7332321;32;20318;-59
2024/04/11 17:58:21;;;;;;;6.95;1.80;;;15.30;99.90;;;;;;7331444;32;20225;-56
2024/04/11 18:02:22;;;;;;;3.62;1.60;;;15.20;99.90;;;;;;7330662;32;20320;-56
2024/04/11 18:06:27;;;;;;;7.53;2.20;;;15.20;99.90;;;;;;7339310;32;20509;-56
2024/04/11 18:10:30;;;;;;;8.10;1.90;;;15.10;99.90;;;;;;7338905;32;20274;-57
2024/04/11 18:14:34;;;;;;;8.45;2.40;;;15.00;99.90;;;;;;7345158;32;20163;-57
2024/04/11 18:18:42;;;;;;;6.82;2.03;;;15.00;99.90;;;;;;7336804;32;20236;-57
2024/04/11 18:22:48;;;;;;;6.18;1.87;;;15.00;99.90;;;;;;7342985;32;20539;-58
2024/04/11 18:26:50;;;;;;;5.15;1.90;;;14.90;99.90;;;;;;7342003;32;20127;-58
2024/04/11 18:30:53;;;;;;;5.75;2.15;;;14.80;99.90;;;;;;7343418;32;20131;-57
2024/04/11 18:34:54;;;;;;;6.05;1.90;;;14.90;99.90;;;;;;7334227;32;20225;-56
2024/04/11 18:38:55;;;;;;;7.68;1.52;;;14.80;99.90;;;;;;7347835;32;20210;-59
2024/04/11 18:43:15;;;;;;;6.15;2.03;;;14.70;99.90;;;;;;7333979;32;20115;-59
2024/04/11 18:51:38;;;;;;;3.17;1.50;;;14.70;99.90;;;;;;7335944;32;20123;-57
2024/04/11 18:55:49;;;;;;;4.45;1.52;;;14.60;99.90;;;;;;7321827;32;20142;-55
2024/04/11 18:59:51;;;;;;;5.75;1.75;;;14.60;99.90;;;;;;7339776;32;20178;-56
2024/04/11 19:03:54;;;;;;;5.05;1.40;;;14.70;99.90;;;;;;7339572;32;20685;-55
2024/04/11 19:08:01;;;;;;;7.28;1.92;;;14.70;99.90;;;;;;7339572;32;20233;-57
2024/04/11 19:12:04;;;;;;;7.68;1.92;;;14.70;99.90;;;;;;7336119;32;20150;-56
2024/04/11 19:16:05;;;;;;;6.28;1.80;;;14.70;99.90;;;;;;7341363;32;20218;-56
2024/04/11 19:20:28;;;;;;;5.03;1.40;;;14.60;99.90;;;;;;7338110;32;20179;-56
2024/04/11 19:24:29;;;;;;;3.80;1.48;;;14.50;99.90;;;;;;7342630;32;20690;-55
2024/04/11 19:28:36;;;;;;;6.90;1.85;;;14.60;99.90;;;;;;7337170;32;20107;-56
2024/04/11 19:32:44;;;;;;;6.53;2.28;;;14.60;99.90;;;;;;7332182;32;20115;-56
2024/04/11 19:36:45;;;;;;;9.35;3.75;;;14.60;99.90;;;;;;7342777;32;20409;-56
2024/04/11 19:40:46;;;;;;;5.10;3.03;;;14.50;99.90;;;;;;7336009;32;20342;-56
2024/04/11 19:44:47;;;;;;;5.85;2.35;;;14.40;99.90;;;;;;7344732;32;20108;-56
2024/04/11 19:48:49;;;;;;;4.80;2.20;;;14.30;99.90;;;;;;7344723;32;20732;-55
2024/04/11 19:52:50;;;;;;;3.78;1.70;;;14.30;99.90;;;;;;7333755;32;20216;-56
2024/04/11 19:56:50;;;;;;;3.65;1.52;;;14.30;99.90;;;;;;7345840;32;20721;-56
2024/04/11 20:00:51;;;;;;;6.30;2.10;;;14.20;99.90;;;;;;7343684;32;20241;-55
2024/04/11 20:04:56;;;;;;;4.85;1.83;;;14.20;99.90;;;;;;7344841;32;20178;-55
2024/04/11 20:08:57;;;;;;;6.25;2.55;;;14.20;99.90;;;;;;7340786;32;20118;-56
2024/04/11 20:13:06;;;;;;;6.40;2.30;;;14.20;99.90;;;;;;7343732;32;20174;-56
2024/04/11 20:17:16;;;;;;;5.20;2.10;;;14.20;99.90;;;;;;7333192;32;20930;-55
2024/04/11 20:21:25;;;;;;;5.50;2.10;;;14.20;99.90;;;;;;7335486;32;20770;-56
2024/04/11 20:25:27;;;;;;;8.10;2.78;;;14.20;99.90;;;;;;7334763;32;20256;-55
2024/04/11 20:29:28;;;;;;;5.45;2.40;;;14.20;99.90;;;;;;7339850;32;20138;-55
2024/04/11 20:33:31;;;;;;;4.28;2.10;;;14.30;99.90;;;;;;7337908;32;20501;-57
2024/04/11 20:37:43;;;;;;;5.03;2.30;;;14.20;99.90;;;;;;7340336;32;20557;-56
2024/04/11 20:41:50;;;;;;;4.55;2.62;;;14.20;99.90;;;;;;7341030;32;20106;-56
2024/04/11 20:45:54;;;;;;;;;;;14.10;99.90;;;;;;7340288;32;20824;-56
2024/04/11 21:37:29;;;;;;;4.53;2.50;;;13.90;99.90;;;;;;7335265;32;20115;-55
2024/04/11 21:41:44;;;;;;;5.28;2.92;;;13.90;99.90;;;;;;7340552;32;20110;-56
2024/04/11 21:45:52;;;;;;;6.43;2.42;;;14.00;99.90;;;;;;7346841;32;20627;-56
2024/04/11 21:49:54;;;;;;;8.98;3.08;;;14.00;99.90;;;;;;7348617;32;20459;-55
2024/04/11 21:53:58;;;;;;;6.95;2.80;;;14.00;99.90;;;;;;7346527;32;20255;-56
2024/04/11 21:58:04;;;;;;;5.28;2.50;;;13.90;99.90;;;;;;7341385;32;20433;-56
2024/04/11 22:02:09;;;;;;;7.70;3.10;;;14.00;99.90;;;;;;7346457;32;20210;-56
2024/04/11 22:06:19;;;;;;;7.10;2.77;;;14.10;99.90;;;;;;7339967;32;20112;-56
2024/04/11 22:10:20;;;;;;;5.78;2.60;;;14.10;99.90;;;;;;7332180;32;20171;-57
2024/04/11 22:14:21;;;;;;;7.47;2.55;;;14.10;99.90;;;;;;7342852;32;20216;-56
2024/04/11 22:18:29;;;;;;;6.82;2.47;;;14.00;99.90;;;;;;7336637;32;20756;-56
2024/04/11 22:22:33;;;;;;;3.80;2.33;;;14.00;99.90;;;;;;7331316;32;20100;-56
2024/04/11 22:26:35;;;;;;;5.68;2.72;;;14.10;99.90;;;;;;7340847;32;20146;-60
2024/04/11 22:30:36;;;;;;;6.95;2.53;;;14.10;99.90;;;;;;7346718;32;20114;-56
2024/04/11 22:34:39;;;;;;;4.95;2.33;;;14.00;99.90;;;;;;7344198;32;20206;-56